Time;durP1;ratioP1;P1;durP2;ratioP2;P2;SDS_P1;SDS_P2;PMS_P1;PMS_P2;Temp;Humidity;BMP_temperature;BMP_pressure;BME280_temperature;BME280_humidity;BME280_pressure;Samples;Min_cycle;Max_cycle;Signal;HPM_P1;HPM_P2
2023/10/18 00:01:33;;;;;;;8.45;4.90;;;;;;;9.21;82.11;94073.63;5064096;28;20063;-90
2023/10/18 00:03:59;;;;;;;6.00;4.18;;;;;;;9.23;81.98;94084.75;5080434;28;20020;-89
2023/10/18 00:06:26;;;;;;;8.95;4.95;;;;;;;9.26;81.99;94081.50;5063747;28;20206;-90
2023/10/18 00:08:57;;;;;;;12.13;5.03;;;;;;;9.29;81.85;94077.47;5065104;28;20323;-90
2023/10/18 00:11:24;;;;;;;7.78;4.57;;;;;;;9.33;81.70;94076.56;5063515;28;20025;-90
2023/10/18 00:13:53;;;;;;;13.20;5.47;;;;;;;9.37;81.53;94079.41;5063913;28;20025;-89
2023/10/18 00:16:22;;;;;;;8.45;5.32;;;;;;;9.39;81.52;94078.00;5062772;28;20028;-86
2023/10/18 00:18:48;;;;;;;8.63;4.72;;;;;;;9.41;80.78;94073.19;5062864;28;20045;-86
2023/10/18 00:21:14;;;;;;;8.05;4.72;;;;;;;9.40;80.85;94084.13;5063589;28;20246;-86
2023/10/18 00:23:40;;;;;;;6.05;4.63;;;;;;;9.43;80.78;94079.00;5063911;28;20230;-87
2023/10/18 00:26:06;;;;;;;7.47;5.00;;;;;;;9.43;80.69;94073.66;5063780;28;20017;-87
2023/10/18 00:28:34;;;;;;;9.68;5.80;;;;;;;9.46;80.91;94068.84;5063762;28;20048;-87
2023/10/18 00:31:12;;;;;;;6.82;4.57;;;;;;;9.49;80.70;94065.59;5063680;28;20043;-87
2023/10/18 00:33:39;;;;;;;7.78;5.53;;;;;;;9.48;80.40;94064.00;5063554;28;20033;-87
2023/10/18 00:36:04;;;;;;;8.80;4.68;;;;;;;9.47;80.37;94051.81;5063717;28;20025;-88
2023/10/18 00:38:30;;;;;;;8.80;4.88;;;;;;;9.47;80.73;94062.44;5062233;28;20025;-86
2023/10/18 00:40:56;;;;;;;9.50;4.97;;;;;;;9.45;80.64;94060.06;5062224;28;20047;-87
2023/10/18 00:43:25;;;;;;;11.60;5.40;;;;;;;9.46;80.49;94052.88;5062017;28;20021;-86
2023/10/18 00:45:53;;;;;;;8.63;5.22;;;;;;;9.42;80.63;94055.34;5062276;28;20180;-88
2023/10/18 00:48:20;;;;;;;8.80;4.68;;;;;;;9.41;80.70;94059.88;5063563;28;20262;-87
2023/10/18 00:50:48;;;;;;;7.38;4.95;;;;;;;9.38;80.94;94060.50;5063657;28;20025;-88
2023/10/18 00:53:20;;;;;;;7.55;4.93;;;;;;;9.39;80.98;94045.31;5063745;28;20204;-87
2023/10/18 00:55:59;;;;;;;9.75;5.43;;;;;;;9.41;80.91;94054.56;5062615;28;20047;-87
2023/10/18 00:58:29;;;;;;;8.75;5.60;;;;;;;9.42;80.81;94058.81;5063060;28;20330;-86
2023/10/18 01:00:56;;;;;;;9.57;5.70;;;;;;;9.41;80.97;94054.56;5062643;28;20021;-89
2023/10/18 01:03:28;;;;;;;10.18;6.15;;;;;;;9.46;81.01;94060.84;5063476;28;20025;-86
2023/10/18 01:06:04;;;;;;;11.30;6.30;;;;;;;9.47;81.26;94062.44;5063004;28;20048;-87
2023/10/18 01:08:30;;;;;;;9.52;6.53;;;;;;;9.48;81.46;94072.75;5062948;28;20033;-86
2023/10/18 01:11:06;;;;;;;12.63;7.20;;;;;;;9.50;81.29;94059.16;5061950;28;20025;-86
2023/10/18 01:13:37;;;;;;;12.25;7.00;;;;;;;9.56;81.26;94065.94;5063217;28;20135;-85
2023/10/18 01:16:14;;;;;;;13.30;7.30;;;;;;;9.58;81.30;94061.09;5061683;28;20250;-84
2023/10/18 01:18:44;;;;;;;14.65;6.88;;;;;;;9.57;80.94;94064.88;5062954;28;20112;-84
2023/10/18 01:21:14;;;;;;;10.32;6.82;;;;;;;9.58;81.29;94059.22;5062961;28;20254;-86
2023/10/18 01:23:50;;;;;;;11.05;7.28;;;;;;;9.60;81.25;94058.94;5061646;28;20029;-86
2023/10/18 01:26:17;;;;;;;14.15;6.88;;;;;;;9.64;81.24;94057.25;5063029;28;20094;-86
2023/10/18 01:28:43;;;;;;;14.88;8.20;;;;;;;9.66;81.17;94065.72;5061655;28;20025;-85
2023/10/18 01:31:09;;;;;;;12.40;7.55;;;;;;;9.69;81.21;94065.13;5061475;28;20024;-86
2023/10/18 01:34:26;;;;;;;11.25;7.95;;;;;;;9.73;81.20;94062.63;5063528;28;20105;-85
2023/10/18 01:36:52;;;;;;;12.07;8.18;;;;;;;9.71;81.11;94070.13;5042076;28;20040;-85
2023/10/18 01:39:18;;;;;;;13.45;8.20;;;;;;;9.72;81.20;94069.81;5064579;28;20200;-86
2023/10/18 01:41:46;;;;;;;13.52;8.63;;;;;;;9.70;81.44;94066.69;5064728;28;20035;-86
2023/10/18 01:44:18;;;;;;;13.65;8.27;;;;;;;9.70;81.32;94066.69;5066347;28;20036;-86
2023/10/18 01:46:47;;;;;;;14.18;8.60;;;;;;;9.69;81.44;94066.97;5065537;28;20036;-85
2023/10/18 01:49:16;;;;;;;16.52;8.88;;;;;;;9.69;81.51;94067.78;5065585;28;20032;-86
2023/10/18 01:51:44;;;;;;;13.05;8.60;;;;;;;9.70;81.44;94061.34;5066451;28;20097;-85
2023/10/18 01:54:13;;;;;;;18.33;8.77;;;;;;;9.68;81.61;94057.44;5065423;28;20234;-86
2023/10/18 01:56:41;;;;;;;13.30;8.75;;;;;;;9.68;81.64;94058.22;5065269;28;20107;-86
2023/10/18 01:59:08;;;;;;;15.20;8.90;;;;;;;9.69;81.64;94053.66;5065163;28;20043;-86
2023/10/18 02:01:34;;;;;;;19.65;8.68;;;;;;;9.70;81.64;94056.03;5065265;28;20720;-86
2023/10/18 02:04:02;;;;;;;13.15;9.02;;;;;;;9.67;81.95;94056.66;5066558;28;20027;-85
2023/10/18 02:06:28;;;;;;;17.88;9.00;;;;;;;9.67;81.96;94061.16;5065256;28;20257;-86
2023/10/18 02:08:53;;;;;;;16.80;8.85;;;;;;;9.68;82.04;94065.41;5066049;28;20025;-86
2023/10/18 02:11:19;;;;;;;16.55;9.77;;;;;;;9.63;82.11;94067.09;5066392;28;20029;-86
2023/10/18 02:13:44;;;;;;;17.13;9.52;;;;;;;9.62;82.38;94062.06;5065136;28;20024;-85
2023/10/18 02:16:14;;;;;;;13.90;8.40;;;;;;;9.60;82.35;94067.69;5066161;28;20143;-86
2023/10/18 02:18:40;;;;;;;17.58;9.50;;;;;;;9.63;82.61;94067.09;5066037;28;20056;-86
2023/10/18 02:21:05;;;;;;;14.65;8.85;;;;;;;9.64;82.36;94059.91;5066229;28;20025;-85
2023/10/18 02:23:34;;;;;;;13.40;8.77;;;;;;;9.63;82.54;94071.66;5065940;28;20369;-86
2023/10/18 02:26:01;;;;;;;17.63;9.68;;;;;;;9.63;82.13;94067.09;5065782;28;20045;-86
2023/10/18 02:28:27;;;;;;;13.27;8.65;;;;;;;9.61;82.57;94060.53;5065913;28;20025;-84
2023/10/18 02:30:55;;;;;;;13.45;8.18;;;;;;;9.61;82.41;94060.53;5064486;28;20318;-84
2023/10/18 02:33:38;;;;;;;17.65;8.90;;;;;;;9.57;82.37;94048.91;5065726;28;20025;-84
2023/10/18 02:36:13;;;;;;;17.50;9.25;;;;;;;9.56;82.46;94057.97;5064551;28;20039;-85
2023/10/18 02:38:41;;;;;;;14.40;9.63;;;;;;;9.54;82.52;94058.25;5065737;28;20043;-84
2023/10/18 02:41:26;;;;;;;18.70;9.48;;;;;;;9.54;82.44;94046.84;5065613;28;20020;-85
2023/10/18 02:43:52;;;;;;;17.52;10.88;;;;;;;9.53;82.65;94056.69;5065453;28;20029;-85
2023/10/18 02:46:23;;;;;;;14.77;8.70;;;;;;;9.51;82.26;94060.75;5065224;28;20021;-85
2023/10/18 02:48:50;;;;;;;13.45;8.10;;;;;;;9.50;82.15;94059.94;5064269;28;20048;-85
2023/10/18 02:51:16;;;;;;;12.63;7.72;;;;;;;9.48;82.34;94048.03;5065378;28;20047;-85
2023/10/18 02:53:41;;;;;;;14.48;7.95;;;;;;;9.48;82.43;94043.50;5064080;28;20020;-86
2023/10/18 02:56:17;;;;;;;14.32;7.93;;;;;;;9.49;82.01;94038.97;5065128;28;20013;-86
2023/10/18 02:58:43;;;;;;;12.07;7.05;;;;;;;9.49;82.01;94038.97;5065309;28;20023;-85
2023/10/18 03:01:09;;;;;;;11.68;7.22;;;;;;;9.50;81.83;94040.53;5064142;28;20025;-85
2023/10/18 03:03:35;;;;;;;11.00;6.47;;;;;;;9.50;81.64;94040.53;5064557;28;20047;-88
2023/10/18 03:06:13;;;;;;;9.60;6.00;;;;;;;9.54;81.81;94039.63;5064495;28;20014;-87
2023/10/18 03:08:49;;;;;;;10.32;5.68;;;;;;;9.59;81.76;94049.38;5064587;28;20021;-88
2023/10/18 03:11:14;;;;;;;10.60;6.63;;;;;;;9.60;81.50;94041.09;5065547;28;20055;-88
2023/10/18 03:13:42;;;;;;;11.77;6.40;;;;;;;9.62;81.75;94048.78;5066265;28;20028;-90
2023/10/18 03:18:41;;;;;;;11.70;6.73;;;;;;;9.59;81.58;94044.06;5065868;28;20254;-87
2023/10/18 03:21:07;;;;;;;10.15;6.93;;;;;;;9.57;81.74;94040.94;5064775;28;20021;-86
2023/10/18 03:23:33;;;;;;;10.20;6.28;;;;;;;9.59;81.29;94038.75;5064027;28;20249;-87
2023/10/18 03:25:59;;;;;;;10.52;5.85;;;;;;;9.51;81.15;94042.13;5064952;28;20024;-86
2023/10/18 03:28:34;;;;;;;9.55;5.95;;;;;;;9.50;81.64;94041.31;5064865;28;20036;-86
2023/10/18 03:31:00;;;;;;;11.57;7.05;;;;;;;9.54;81.57;94044.16;5065015;28;20025;-86
2023/10/18 03:33:28;;;;;;;13.75;7.63;;;;;;;9.53;81.54;94042.63;5064736;28;20032;-85
2023/10/18 03:36:06;;;;;;;11.27;7.70;;;;;;;9.52;81.83;94033.03;5065019;28;20017;-85
2023/10/18 03:38:39;;;;;;;11.13;7.10;;;;;;;9.55;81.95;94037.78;5063761;28;20028;-86
2023/10/18 03:41:08;;;;;;;12.88;7.30;;;;;;;9.55;81.66;94037.78;5064581;28;20031;-86
2023/10/18 03:43:36;;;;;;;11.30;7.32;;;;;;;9.51;81.70;94034.94;5064682;28;20041;-86
2023/10/18 03:46:09;;;;;;;11.32;7.80;;;;;;;9.50;81.71;94024.56;5064259;28;20040;-86
2023/10/18 03:48:44;;;;;;;13.55;7.20;;;;;;;9.51;81.73;94031.50;5064603;28;20025;-86
2023/10/18 03:51:17;;;;;;;12.60;7.05;;;;;;;9.49;81.72;94026.47;5064857;28;20033;-86
2023/10/18 03:53:42;;;;;;;11.05;6.70;;;;;;;9.53;81.91;94039.94;5064652;28;20027;-87
2023/10/18 03:56:09;;;;;;;13.07;6.85;;;;;;;9.53;81.67;94035.41;5064009;28;20025;-87
2023/10/18 03:58:36;;;;;;;12.52;7.25;;;;;;;9.54;81.67;94030.88;5064525;28;20032;-86
2023/10/18 04:01:01;;;;;;;13.63;7.22;;;;;;;9.56;81.66;94026.81;5064872;28;20083;-88
2023/10/18 04:03:29;;;;;;;15.68;7.07;;;;;;;9.54;81.81;94026.31;5063449;28;20366;-87
2023/10/18 04:06:03;;;;;;;9.90;6.70;;;;;;;9.56;81.72;94016.16;5063389;28;20032;-87
2023/10/18 04:08:29;;;;;;;11.38;6.88;;;;;;;9.56;81.64;94012.72;5064430;28;20025;-87
2023/10/18 04:10:58;;;;;;;11.70;6.97;;;;;;;9.58;81.64;94005.22;5065065;28;20051;-87
2023/10/18 04:13:25;;;;;;;14.63;7.70;;;;;;;9.58;81.74;94014.00;5064382;28;20028;-88
2023/10/18 04:15:59;;;;;;;11.43;7.22;;;;;;;9.57;81.88;94019.63;5064364;28;20013;-88
2023/10/18 04:18:29;;;;;;;10.70;6.20;;;;;;;9.54;81.42;94010.34;5064674;28;20261;-88
2023/10/18 04:21:02;;;;;;;10.00;5.70;;;;;;;9.55;81.18;94011.16;5062993;28;20017;-88
2023/10/18 04:23:27;;;;;;;;;;;;;;;9.47;81.37;94003.91;5065142;28;20257;-87
2023/10/18 04:26:10;;;;;;;11.75;6.72;;;;;;;9.35;81.45;94007.88;5063873;28;19940;-87
2023/10/18 04:28:39;;;;;;;12.52;7.60;;;;;;;9.30;81.80;94010.66;5064063;28;20051;-87
2023/10/18 04:31:08;;;;;;;13.23;7.93;;;;;;;9.31;82.09;94017.56;5063546;28;20219;-86
2023/10/18 04:33:35;;;;;;;12.55;6.88;;;;;;;9.26;82.49;94025.66;5064023;28;20020;-86
2023/10/18 04:36:09;;;;;;;10.55;6.22;;;;;;;9.16;82.76;94015.22;5064669;28;20043;-86
2023/10/18 04:38:42;;;;;;;11.30;6.60;;;;;;;9.12;82.79;94014.25;5064364;28;20024;-85
2023/10/18 04:41:08;;;;;;;12.60;7.78;;;;;;;9.07;83.46;94009.06;5063719;28;20216;-87
2023/10/18 04:43:34;;;;;;;13.05;7.35;;;;;;;9.08;83.75;94013.25;5064177;28;20024;-86
2023/10/18 04:46:47;;;;;;;14.57;7.40;;;;;;;9.02;84.03;94018.72;5063666;28;20192;-88
2023/10/18 04:51:26;;;;;;;11.70;7.05;;;;;;;8.98;84.11;94024.94;5063274;28;20051;-84
2023/10/18 04:54:10;;;;;;;12.05;7.47;;;;;;;8.97;84.32;94031.31;5063123;28;20292;-86
2023/10/18 04:56:38;;;;;;;11.23;6.78;;;;;;;8.95;84.17;94025.50;5063289;28;20092;-85
2023/10/18 04:59:11;;;;;;;13.32;7.63;;;;;;;8.91;84.01;94032.50;5063902;28;20025;-85
2023/10/18 05:04:21;;;;;;;14.13;7.53;;;;;;;8.94;85.06;94035.38;5063154;28;20028;-84
2023/10/18 05:06:54;;;;;;;11.10;7.05;;;;;;;8.88;83.66;94049.84;5062684;28;20278;-84
2023/10/18 05:09:30;;;;;;;10.98;6.63;;;;;;;8.84;84.14;94064.81;5061635;28;20025;-86
2023/10/18 05:12:16;;;;;;;10.25;6.50;;;;;;;8.83;84.65;94071.19;5062726;28;20024;-80
2023/10/18 05:14:50;;;;;;;9.77;7.10;;;;;;;8.80;85.66;94071.81;5062734;28;20020;-80
2023/10/18 05:20:21;;;;;;;10.90;6.88;;;;;;;8.91;85.37;94083.78;5062621;28;20059;-80
2023/10/18 05:22:50;;;;;;;10.90;6.82;;;;;;;8.96;84.97;94088.25;5062635;28;20075;-80
2023/10/18 05:27:59;;;;;;;15.45;7.65;;;;;;;9.07;84.60;94094.13;5062714;28;20375;-83
2023/10/18 05:41:29;;;;;;;10.67;6.03;;;;;;;9.19;84.37;94107.72;5065279;28;20070;-87
2023/10/18 05:43:58;;;;;;;;;;;;;;;9.27;83.61;94112.31;5068119;28;20075;-87
2023/10/18 05:46:27;;;;;;;14.65;6.80;;;;;;;9.32;83.51;94114.91;5067621;28;19909;-89
2023/10/18 05:48:57;;;;;;;11.07;6.88;;;;;;;9.42;83.92;94103.22;5072619;28;20025;-87
2023/10/18 05:51:33;;;;;;;10.85;6.15;;;;;;;9.59;83.65;94097.28;5073902;28;20025;-93
2023/10/18 05:54:05;;;;;;;10.45;6.25;;;;;;;9.68;83.50;94100.78;5063592;28;20045;-85
2023/10/18 05:56:33;;;;;;;;;;;;;;;9.79;83.09;94094.16;5062691;28;20258;-80
2023/10/18 06:01:44;;;;;;;11.95;5.53;;;;;;;9.99;82.62;94094.75;5062573;28;20092;-79
2023/10/18 06:04:12;;;;;;;9.35;5.78;;;;;;;10.08;81.84;94095.63;5062244;28;20341;-79
2023/10/18 06:06:37;;;;;;;12.35;6.40;;;;;;;10.15;81.51;94103.16;5061634;28;20298;-79
2023/10/18 06:09:10;;;;;;;14.10;6.30;;;;;;;10.22;81.33;94092.88;5061459;28;20028;-79
2023/10/18 06:11:37;;;;;;;10.05;6.22;;;;;;;10.29;81.03;94089.78;5062557;28;20028;-79
2023/10/18 06:14:08;;;;;;;11.63;6.85;;;;;;;10.38;80.90;94095.97;5059478;28;20060;-79
2023/10/18 06:16:34;;;;;;;12.90;6.88;;;;;;;10.48;80.38;94098.34;5060599;28;20306;-78
2023/10/18 06:19:01;;;;;;;15.65;6.78;;;;;;;10.57;80.18;94107.19;5061394;28;20045;-78
2023/10/18 06:21:28;;;;;;;12.75;6.95;;;;;;;10.65;79.48;94092.34;5063973;28;20024;-81
2023/10/18 06:23:56;;;;;;;12.57;6.13;;;;;;;10.73;79.41;94093.47;5063252;28;20219;-80
2023/10/18 06:26:29;;;;;;;9.50;5.60;;;;;;;10.81;78.93;94103.41;5064208;28;20031;-80
2023/10/18 06:29:11;;;;;;;8.27;5.03;;;;;;;10.91;78.69;94099.63;5065237;28;20200;-80
2023/10/18 06:31:43;;;;;;;11.57;5.03;;;;;;;10.94;78.34;94105.16;5065776;28;20033;-80
2023/10/18 06:34:18;;;;;;;16.50;4.90;;;;;;;11.01;78.00;94097.50;5065646;28;20032;-80
2023/10/18 06:36:47;;;;;;;7.90;5.22;;;;;;;11.10;77.50;94099.41;5065847;28;20271;-81
2023/10/18 06:39:24;;;;;;;14.93;5.03;;;;;;;11.14;77.44;94105.69;5065596;28;20051;-81
2023/10/18 06:41:56;;;;;;;8.57;6.22;;;;;;;11.14;77.66;94109.13;5064169;28;20052;-81
2023/10/18 06:44:30;;;;;;;11.20;5.93;;;;;;;11.19;77.26;94113.53;5064264;28;20029;-81
2023/10/18 06:46:57;;;;;;;12.73;6.20;;;;;;;11.26;76.97;94113.09;5065264;28;20060;-81
2023/10/18 06:49:22;;;;;;;9.40;6.22;;;;;;;11.35;76.30;94112.00;5065877;28;20364;-84
2023/10/18 06:51:51;;;;;;;8.40;5.45;;;;;;;11.42;75.81;94112.34;5065459;28;20021;-84
2023/10/18 06:54:23;;;;;;;16.65;6.05;;;;;;;11.50;75.34;94126.00;5065158;28;20025;-83
2023/10/18 06:56:53;;;;;;;10.75;5.50;;;;;;;11.58;75.11;94115.34;5065311;28;20023;-84
2023/10/18 06:59:25;;;;;;;10.00;5.15;;;;;;;11.64;74.16;94118.63;5065717;28;20044;-84
2023/10/18 07:01:54;;;;;;;12.18;5.38;;;;;;;11.69;73.69;94117.72;5064958;28;20032;-84
2023/10/18 07:04:35;;;;;;;8.82;5.60;;;;;;;11.75;73.80;94122.59;5065035;28;20263;-83
2023/10/18 07:07:13;;;;;;;10.05;5.65;;;;;;;11.80;73.74;94126.97;5064872;28;20029;-84
2023/10/18 07:09:42;;;;;;;12.80;5.68;;;;;;;11.91;73.57;94127.50;5063800;28;20207;-84
2023/10/18 07:12:11;;;;;;;8.48;4.93;;;;;;;11.94;72.98;94132.19;5063720;28;20098;-84
2023/10/18 07:14:37;;;;;;;7.72;4.90;;;;;;;11.92;72.46;94134.41;5064820;28;20024;-84
2023/10/18 07:17:04;;;;;;;11.32;5.55;;;;;;;11.92;72.42;94134.41;5064326;28;20307;-82
2023/10/18 07:19:41;;;;;;;14.30;5.43;;;;;;;12.00;72.42;94126.38;5064153;28;20100;-82
2023/10/18 07:22:06;;;;;;;13.85;5.25;;;;;;;12.05;72.41;94130.78;5063958;28;20092;-84
2023/10/18 07:24:34;;;;;;;8.23;5.03;;;;;;;12.04;71.53;94123.88;5063169;28;20076;-85
2023/10/18 07:27:09;;;;;;;12.43;5.30;;;;;;;12.15;71.73;94138.50;5064513;28;20100;-84
2023/10/18 07:29:37;;;;;;;11.88;5.57;;;;;;;12.23;71.80;94129.69;5064406;28;20029;-82
2023/10/18 07:32:06;;;;;;;13.50;5.82;;;;;;;12.29;72.02;94140.19;5062669;28;20037;-82
2023/10/18 07:34:36;;;;;;;12.73;5.93;;;;;;;12.34;71.67;94138.16;5064421;28;20357;-84
2023/10/18 07:37:17;;;;;;;9.05;5.85;;;;;;;12.43;71.44;94138.91;5064429;28;20051;-84
2023/10/18 07:39:49;;;;;;;14.43;5.60;;;;;;;12.50;70.55;94143.00;5064444;28;20072;-84
2023/10/18 07:42:18;;;;;;;13.15;5.50;;;;;;;12.49;69.92;94136.84;5064776;28;20029;-85
2023/10/18 07:44:46;;;;;;;10.60;5.55;;;;;;;12.52;69.47;94128.22;5064202;28;20044;-86
2023/10/18 07:47:17;;;;;;;9.23;4.93;;;;;;;12.59;69.48;94131.16;5064322;28;20021;-82
2023/10/18 07:49:45;;;;;;;10.88;5.40;;;;;;;12.65;69.13;94129.91;5064073;28;20028;-84
2023/10/18 07:52:13;;;;;;;9.90;5.95;;;;;;;12.71;68.72;94129.72;5063974;28;20033;-84
2023/10/18 07:54:39;;;;;;;11.77;6.38;;;;;;;12.73;68.88;94119.50;5064195;28;20307;-84
2023/10/18 07:57:15;;;;;;;11.57;5.78;;;;;;;12.74;68.90;94124.53;5064031;28;20207;-83
2023/10/18 07:59:47;;;;;;;15.35;6.20;;;;;;;12.75;69.25;94115.41;5063894;28;20131;-83
2023/10/18 08:02:13;;;;;;;9.45;5.88;;;;;;;12.78;68.58;94116.63;5064043;28;20032;-82
2023/10/18 08:04:43;;;;;;;10.45;5.70;;;;;;;12.77;68.68;94118.53;5062477;28;20087;-83
2023/10/18 08:07:10;;;;;;;8.70;5.10;;;;;;;12.83;69.10;94127.19;5062597;28;20044;-82
2023/10/18 08:09:39;;;;;;;13.05;6.13;;;;;;;12.79;68.66;94120.91;5063758;28;20021;-83
2023/10/18 08:14:50;;;;;;;10.20;5.97;;;;;;;12.70;68.68;94126.28;5063856;28;20031;-83
2023/10/18 08:17:33;;;;;;;9.02;6.10;;;;;;;12.67;68.74;94128.81;5063564;28;20362;-82
2023/10/18 08:22:47;;;;;;;11.68;6.60;;;;;;;12.61;68.96;94126.28;5063487;28;20047;-82
2023/10/18 08:25:23;;;;;;;14.73;6.75;;;;;;;12.60;69.01;94132.75;5063442;28;20349;-82
2023/10/18 08:27:52;;;;;;;11.57;5.93;;;;;;;12.58;69.17;94129.63;5063619;28;20025;-82
2023/10/18 08:30:38;;;;;;;15.02;5.50;;;;;;;12.60;69.00;94130.06;5063367;28;20078;-82
2023/10/18 08:33:07;;;;;;;12.15;6.00;;;;;;;12.61;69.21;94128.19;5063318;28;20045;-82
2023/10/18 08:35:33;;;;;;;11.00;6.80;;;;;;;12.60;69.36;94131.97;5063234;28;20219;-82
2023/10/18 08:38:02;;;;;;;12.98;6.22;;;;;;;12.65;69.02;94135.25;5063313;28;20063;-81
2023/10/18 08:43:12;;;;;;;12.65;5.32;;;;;;;12.70;68.65;94142.31;5063028;28;20033;-81
2023/10/18 08:45:45;;;;;;;9.65;5.60;;;;;;;12.74;68.58;94139.78;5063170;28;20029;-80
2023/10/18 08:48:38;;;;;;;10.65;4.70;;;;;;;12.77;67.69;94141.84;5063135;28;20028;-80
2023/10/18 08:50:59;;;;;;;11.13;5.25;;;;;;;12.77;67.69;94147.19;5062553;28;20032;-81
2023/10/18 08:53:26;;;;;;;9.73;5.40;;;;;;;12.85;68.08;94152.50;5062882;28;20033;-81
2023/10/18 08:55:56;;;;;;;18.48;5.75;;;;;;;12.90;67.59;94156.09;5061664;28;20024;-82
2023/10/18 08:58:22;;;;;;;11.27;5.28;;;;;;;12.90;67.39;94148.06;5061931;28;20052;-81
2023/10/18 09:03:23;;;;;;;10.90;6.13;;;;;;;12.93;66.93;94148.22;5062825;28;20028;-82
2023/10/18 09:05:50;;;;;;;10.75;5.22;;;;;;;12.90;67.38;94148.84;5063027;28;20202;-81
2023/10/18 09:08:26;;;;;;;10.50;5.82;;;;;;;12.95;67.51;94148.69;5061737;28;20039;-82
2023/10/18 09:10:54;;;;;;;12.68;6.00;;;;;;;13.04;67.70;94154.00;5061416;28;20211;-82
2023/10/18 09:15:55;;;;;;;10.32;5.45;;;;;;;13.16;67.12;94147.97;5062903;28;20025;-85
2023/10/18 09:18:30;;;;;;;10.10;5.38;;;;;;;13.25;66.29;94159.44;5062742;28;20045;-81
2023/10/18 09:21:18;;;;;;;10.27;5.18;;;;;;;13.20;66.06;94160.38;5062527;28;20399;-80
2023/10/18 09:23:44;;;;;;;11.82;5.50;;;;;;;13.14;66.41;94160.91;5062111;28;20032;-81
2023/10/18 09:26:18;;;;;;;11.27;5.45;;;;;;;13.17;66.54;94166.41;5062511;28;20079;-79
2023/10/18 09:28:44;;;;;;;8.43;5.30;;;;;;;13.16;66.42;94172.84;5062694;28;20088;-80
2023/10/18 09:31:21;;;;;;;10.90;5.65;;;;;;;13.14;66.45;94166.25;5062617;28;20047;-79
2023/10/18 09:33:50;;;;;;;7.18;4.63;;;;;;;13.15;65.46;94162.47;5062587;28;20025;-80
2023/10/18 09:36:20;;;;;;;20.75;5.28;;;;;;;13.16;65.38;94153.31;5062537;28;20302;-80
2023/10/18 09:38:49;;;;;;;10.18;5.43;;;;;;;13.21;66.06;94155.84;5062625;28;20024;-80
2023/10/18 09:41:18;;;;;;;10.77;5.70;;;;;;;13.25;66.37;94151.41;5062504;28;20020;-81
2023/10/18 09:43:44;;;;;;;10.32;5.47;;;;;;;13.28;66.17;94145.41;5062633;28;20059;-81
2023/10/18 09:46:10;;;;;;;12.52;5.22;;;;;;;13.36;65.82;94149.97;5062298;28;20321;-80
2023/10/18 09:48:41;;;;;;;11.45;5.75;;;;;;;13.40;65.16;94145.53;5062307;28;20040;-80
2023/10/18 09:51:10;;;;;;;11.80;5.57;;;;;;;13.44;65.83;94146.44;5062446;28;20032;-79
2023/10/18 09:53:44;;;;;;;10.60;5.20;;;;;;;13.52;65.46;94144.06;5061883;28;20161;-80
2023/10/18 09:56:15;;;;;;;11.43;4.97;;;;;;;13.57;65.01;94143.84;5066145;28;20238;-80
2023/10/18 09:58:43;;;;;;;12.98;5.32;;;;;;;13.66;64.43;94133.88;5066408;28;20067;-80
2023/10/18 10:01:27;;;;;;;9.48;6.03;;;;;;;13.78;64.38;94128.59;5066209;28;20028;-80
2023/10/18 10:03:53;;;;;;;11.45;5.28;;;;;;;13.88;63.50;94126.63;5065923;28;20249;-81
2023/10/18 10:06:26;;;;;;;11.75;4.38;;;;;;;13.91;63.57;94117.94;5066195;28;20082;-80
2023/10/18 10:09:11;;;;;;;8.18;5.25;;;;;;;13.95;63.48;94125.00;5065962;28;20223;-80
2023/10/18 10:11:45;;;;;;;8.38;4.60;;;;;;;13.96;63.28;94115.06;5065914;28;20091;-82
2023/10/18 10:14:30;;;;;;;9.40;5.63;;;;;;;13.99;63.29;94109.84;5065853;28;20028;-83
2023/10/18 10:17:06;;;;;;;10.00;5.70;;;;;;;14.01;63.27;94115.66;5066082;28;20746;-82
2023/10/18 10:19:37;;;;;;;21.67;5.68;;;;;;;14.10;63.39;94106.75;5065849;28;20039;-81
2023/10/18 10:22:06;;;;;;;10.52;5.22;;;;;;;14.13;63.27;94104.19;5065687;28;20204;-81
2023/10/18 10:24:42;;;;;;;14.68;6.40;;;;;;;14.13;63.58;94096.16;5065539;28;20021;-81
2023/10/18 10:32:53;;;;;;;14.43;5.55;;;;;;;14.07;63.81;94092.13;5065583;28;20267;-80
2023/10/18 10:35:24;;;;;;;12.55;5.50;;;;;;;14.04;63.45;94093.56;5064536;28;20013;-80
2023/10/18 10:38:21;;;;;;;10.40;4.90;;;;;;;14.01;64.13;94088.06;5065999;28;20020;-80
2023/10/18 10:40:48;;;;;;;13.35;4.57;;;;;;;14.02;63.72;94087.75;5065628;28;20088;-81
2023/10/18 10:43:14;;;;;;;9.50;5.85;;;;;;;14.00;63.66;94094.53;5064458;28;20032;-80
2023/10/18 10:51:13;;;;;;;12.93;5.63;;;;;;;14.02;63.88;94084.25;5065474;28;19904;-80
2023/10/18 10:53:43;;;;;;;9.60;5.35;;;;;;;13.97;63.92;94090.63;5064030;28;20341;-80
2023/10/18 10:56:17;;;;;;;11.52;4.93;;;;;;;13.94;63.92;94085.13;5065202;28;20013;-81
2023/10/18 10:58:48;;;;;;;14.77;5.20;;;;;;;13.92;63.68;94092.72;5065158;28;20044;-84
2023/10/18 11:01:13;;;;;;;10.23;5.68;;;;;;;13.85;63.57;94094.03;5064927;28;20036;-84
2023/10/18 11:03:54;;;;;;;8.60;4.88;;;;;;;13.71;63.66;94098.06;5064953;28;20013;-85
2023/10/18 11:06:23;;;;;;;11.85;4.72;;;;;;;13.59;64.05;94096.09;5063493;28;20059;-83
2023/10/18 11:08:52;;;;;;;10.20;4.40;;;;;;;13.54;64.38;94088.28;5064725;28;20021;-83
2023/10/18 11:11:21;;;;;;;9.93;4.72;;;;;;;13.44;64.75;94100.16;5065097;28;20017;-81
2023/10/18 11:13:48;;;;;;;6.90;4.40;;;;;;;13.25;64.65;94095.19;5063818;28;20027;-81
2023/10/18 11:16:15;;;;;;;8.40;5.10;;;;;;;13.19;65.60;94099.94;5064568;28;20058;-83
2023/10/18 11:18:42;;;;;;;8.38;4.68;;;;;;;13.21;66.53;94089.72;5064683;28;20413;-81
2023/10/18 11:21:24;;;;;;;11.95;5.50;;;;;;;13.24;66.73;94099.75;5064549;28;20319;-82
2023/10/18 11:23:57;;;;;;;9.15;5.07;;;;;;;13.31;66.93;94093.94;5064546;28;20023;-86
2023/10/18 11:26:26;;;;;;;7.82;4.45;;;;;;;13.37;66.30;94095.31;5064756;28;20032;-86
2023/10/18 11:29:05;;;;;;;11.00;4.70;;;;;;;13.47;66.08;94093.34;5064764;28;20219;-80
2023/10/18 11:31:32;;;;;;;10.00;6.30;;;;;;;13.53;65.30;94084.78;5064175;28;20309;-81
2023/10/18 11:34:08;;;;;;;9.18;4.25;;;;;;;13.51;65.34;94083.56;5064441;28;20314;-79
2023/10/18 11:36:39;;;;;;;9.00;4.25;;;;;;;13.43;65.21;94088.66;5064359;28;20013;-80
2023/10/18 11:41:42;;;;;;;9.52;5.30;;;;;;;13.40;65.57;94093.88;5064322;28;20028;-81
2023/10/18 11:44:13;;;;;;;13.60;4.93;;;;;;;13.44;65.59;94092.91;5064403;28;20058;-80
2023/10/18 11:46:56;;;;;;;8.73;5.50;;;;;;;13.51;65.50;94096.94;5063001;28;20044;-82
2023/10/18 11:49:22;;;;;;;;;;;;;;;13.50;65.31;94090.03;5064677;28;20059;-79
2023/10/18 11:51:49;;;;;;;8.15;5.03;;;;;;;13.46;65.88;94071.16;5064178;28;19908;-83
2023/10/18 11:54:32;;;;;;;10.07;5.45;;;;;;;13.50;65.53;94066.72;5062889;28;20098;-82
2023/10/18 11:56:59;;;;;;;9.20;5.38;;;;;;;13.53;65.82;94081.34;5063998;28;20025;-82
2023/10/18 11:59:29;;;;;;;13.23;5.72;;;;;;;13.57;66.53;94071.53;5063900;28;20067;-81
2023/10/18 12:02:13;;;;;;;10.85;6.00;;;;;;;13.65;65.69;94074.16;5062819;28;20017;-82
2023/10/18 12:04:38;;;;;;;13.57;5.60;;;;;;;13.65;65.50;94073.38;5062562;28;20104;-80
2023/10/18 12:07:04;;;;;;;11.77;6.50;;;;;;;13.65;66.00;94070.69;5062631;28;20048;-84
2023/10/18 12:09:42;;;;;;;10.60;6.07;;;;;;;13.64;65.37;94074.50;5063875;28;20066;-82
2023/10/18 12:12:13;;;;;;;14.07;7.05;;;;;;;13.62;65.53;94077.50;5063755;28;20032;-84
2023/10/18 12:14:45;;;;;;;10.88;5.50;;;;;;;13.63;65.15;94075.59;5064015;28;20309;-85
2023/10/18 12:17:14;;;;;;;10.52;5.45;;;;;;;13.71;65.00;94077.44;5063430;28;20086;-83
2023/10/18 12:19:41;;;;;;;8.98;5.20;;;;;;;13.72;64.47;94073.66;5063671;28;20334;-82
2023/10/18 12:22:09;;;;;;;11.73;5.50;;;;;;;13.78;64.33;94077.69;5063512;28;20021;-82
2023/10/18 12:24:35;;;;;;;14.55;5.35;;;;;;;13.87;64.93;94076.84;5063519;28;20022;-84
2023/10/18 12:27:18;;;;;;;8.50;5.45;;;;;;;13.94;64.40;94080.56;5063810;28;20021;-83
2023/10/18 12:29:43;;;;;;;11.07;5.43;;;;;;;14.03;64.53;94078.59;5062192;28;20100;-83
2023/10/18 12:32:30;;;;;;;9.35;4.90;;;;;;;14.08;64.08;94080.28;5062262;28;20080;-81
2023/10/18 12:34:56;;;;;;;9.07;5.78;;;;;;;14.19;63.87;94083.34;5063500;28;20025;-79
2023/10/18 12:37:25;;;;;;;13.02;5.10;;;;;;;14.32;63.93;94087.63;5063170;28;20047;-76
2023/10/18 12:39:51;;;;;;;11.13;4.80;;;;;;;14.41;63.37;94076.78;5063321;28;20020;-77
2023/10/18 12:42:19;;;;;;;8.55;5.65;;;;;;;14.50;62.89;94085.53;5063285;28;20188;-77